createdAt,value
2019-05-07T00:02:32.025Z,4.16
2019-05-07T00:05:02.748Z,4.10
2019-05-07T00:07:33.596Z,3.99
2019-05-07T00:10:04.505Z,4.01
2019-05-07T00:12:35.286Z,3.96
2019-05-07T00:15:06.515Z,3.98
2019-05-07T00:17:37.311Z,3.97
2019-05-07T00:20:08.937Z,3.88
2019-05-07T00:22:41.820Z,3.81
2019-05-07T00:25:13.945Z,3.88
2019-05-07T00:27:44.677Z,3.87
2019-05-07T00:30:15.541Z,3.88
2019-05-07T00:32:46.311Z,3.91
2019-05-07T00:35:19.688Z,3.96
2019-05-07T00:37:56.236Z,3.97
2019-05-07T00:40:45.947Z,3.87
2019-05-07T00:43:19.554Z,3.79
2019-05-07T00:45:56.709Z,3.85
2019-05-07T00:48:26.451Z,3.81
2019-05-07T00:51:16.060Z,3.69
2019-05-07T00:53:47.074Z,3.57
2019-05-07T00:56:18.039Z,3.38
2019-05-07T00:58:48.946Z,3.31
2019-05-07T01:01:19.818Z,3.02
2019-05-07T01:03:53.184Z,3.02
2019-05-07T01:06:26.428Z,2.90
2019-05-07T01:08:55.655Z,2.77
2019-05-07T01:11:26.512Z,2.74
2019-05-07T01:13:57.314Z,2.76
2019-05-07T01:16:28.099Z,2.76
2019-05-07T01:18:58.787Z,2.81
2019-05-07T01:21:29.733Z,2.77
2019-05-07T01:24:02.977Z,2.83
2019-05-07T01:26:33.218Z,2.88
2019-05-07T01:29:23.883Z,3.03
2019-05-07T01:32:00.233Z,3.07
2019-05-07T01:34:42.821Z,3.23
2019-05-07T01:37:13.056Z,3.18
2019-05-07T01:39:43.608Z,3.18
2019-05-07T01:42:14.531Z,2.96
2019-05-07T01:44:45.245Z,2.75
2019-05-07T01:47:16.046Z,2.55
2019-05-07T01:49:46.998Z,2.46
2019-05-07T01:52:17.836Z,2.33
2019-05-07T01:54:48.756Z,2.39
2019-05-07T01:57:19.608Z,2.35
2019-05-07T01:59:52.566Z,2.47
2019-05-07T02:02:37.240Z,2.59
2019-05-07T02:05:16.854Z,2.62
2019-05-07T02:07:53.609Z,2.68
2019-05-07T02:10:34.317Z,2.66
2019-05-07T02:13:05.500Z,2.70
2019-05-07T02:15:36.299Z,2.66
2019-05-07T02:18:16.134Z,2.70
2019-05-07T02:20:47.003Z,2.71
2019-05-07T02:23:17.924Z,2.77
2019-05-07T02:25:48.827Z,2.88
2019-05-07T02:28:19.658Z,2.98
2019-05-07T02:30:53.315Z,3.04
2019-05-07T02:33:23.207Z,3.14
2019-05-07T02:35:54.292Z,3.42
2019-05-07T02:38:34.627Z,3.57
2019-05-07T02:41:16.746Z,3.65
2019-05-07T02:43:47.482Z,3.70
2019-05-07T02:46:37.140Z,3.80
2019-05-07T02:49:15.919Z,3.92
2019-05-07T02:51:54.014Z,4.02
2019-05-07T02:54:32.588Z,4.10
2019-05-07T02:57:03.132Z,4.13
2019-05-07T02:59:34.096Z,4.22
2019-05-07T03:02:05.119Z,4.24
2019-05-07T03:04:35.760Z,4.26
2019-05-07T03:07:06.337Z,4.28
2019-05-07T03:09:36.946Z,4.20
2019-05-07T03:12:07.689Z,4.25
2019-05-07T03:14:38.290Z,4.28
2019-05-07T03:17:08.920Z,4.25
2019-05-07T03:19:43.010Z,4.34
2019-05-07T03:22:14.063Z,4.34
2019-05-07T03:24:56.034Z,4.32
2019-05-07T03:27:26.819Z,4.46
2019-05-07T03:30:04.457Z,4.54
2019-05-07T03:32:40.692Z,4.48
2019-05-07T03:35:27.390Z,4.47
2019-05-07T03:37:56.003Z,4.49
2019-05-07T03:40:27.138Z,4.49
2019-05-07T03:43:01.625Z,4.51
2019-05-07T03:45:46.096Z,4.53
2019-05-07T03:48:18.508Z,4.53
2019-05-07T03:50:49.286Z,4.59
2019-05-07T03:53:22.726Z,4.53
2019-05-07T03:55:53.670Z,4.52
2019-05-07T03:58:24.994Z,4.59
2019-05-07T04:00:55.557Z,4.73
2019-05-07T04:03:26.242Z,4.78
2019-05-07T04:05:56.904Z,4.90
2019-05-07T04:08:27.739Z,5.04
2019-05-07T04:10:58.492Z,5.29
2019-05-07T04:13:29.171Z,5.44
2019-05-07T04:15:59.935Z,5.59
2019-05-07T04:18:32.952Z,5.72
2019-05-07T04:21:04.039Z,5.87
2019-05-07T04:23:34.914Z,6.05
2019-05-07T04:26:13.496Z,6.17
2019-05-07T04:28:53.709Z,6.45
2019-05-07T04:31:24.304Z,6.86
2019-05-07T04:33:57.157Z,7.78
2019-05-07T04:36:30.048Z,8.40
2019-05-07T04:39:03.099Z,9.19
2019-05-07T04:41:33.281Z,9.50
2019-05-07T04:44:04.163Z,9.11
2019-05-07T04:46:34.719Z,8.70
2019-05-07T04:49:05.653Z,8.51
2019-05-07T04:51:55.283Z,8.08
2019-05-07T04:54:25.836Z,7.97
2019-05-07T04:56:56.678Z,7.77
2019-05-07T04:59:27.193Z,7.71
2019-05-07T05:02:04.515Z,7.51
2019-05-07T05:04:35.584Z,7.47
2019-05-07T05:07:06.210Z,7.57
2019-05-07T05:09:37.178Z,7.59
2019-05-07T05:12:07.910Z,7.56
2019-05-07T05:14:38.775Z,7.60
2019-05-07T05:17:09.486Z,7.74
2019-05-07T05:19:40.136Z,8.63
2019-05-07T05:22:31.736Z,10.90
2019-05-07T05:25:22.751Z,12.61
2019-05-07T05:27:53.588Z,13.46
2019-05-07T05:30:43.421Z,14.62
2019-05-07T05:33:14.411Z,14.90
2019-05-07T05:35:45.160Z,15.65
2019-05-07T05:38:15.839Z,16.13
2019-05-07T05:40:46.447Z,15.32
2019-05-07T05:43:24.618Z,15.62
2019-05-07T05:45:59.446Z,16.76
2019-05-07T05:48:30.204Z,16.98
2019-05-07T05:51:19.594Z,17.09
2019-05-07T05:53:58.767Z,17.68
2019-05-07T05:56:38.814Z,17.82
2019-05-07T05:59:25.323Z,18.03
2019-05-07T06:02:08.797Z,18.23
2019-05-07T06:04:58.420Z,19.01
2019-05-07T06:07:35.308Z,18.00
2019-05-07T06:10:22.969Z,17.55
2019-05-07T06:13:03.795Z,17.45
2019-05-07T06:15:53.296Z,17.73
2019-05-07T06:18:42.760Z,19.35
2019-05-07T06:21:32.302Z,18.47
2019-05-07T06:24:05.425Z,18.87
2019-05-07T06:26:35.937Z,17.85
2019-05-07T06:29:06.863Z,17.82
2019-05-07T06:31:37.684Z,18.04
2019-05-07T06:34:08.377Z,19.44
2019-05-07T06:36:42.414Z,19.36
2019-05-07T06:39:23.269Z,19.18
2019-05-07T06:42:12.792Z,19.85
2019-05-07T06:44:44.397Z,20.52
2019-05-07T06:47:14.954Z,21.26
2019-05-07T06:49:45.608Z,21.28
2019-05-07T06:52:16.238Z,22.17
2019-05-07T06:54:47.035Z,23.91
2019-05-07T06:57:17.830Z,24.48
2019-05-07T06:59:53.180Z,21.01
2019-05-07T07:02:38.150Z,23.08
2019-05-07T07:05:29.322Z,22.22
2019-05-07T07:08:04.554Z,21.84
2019-05-07T07:10:54.055Z,22.71
2019-05-07T07:13:25.937Z,23.34
2019-05-07T07:15:56.609Z,21.22
2019-05-07T07:18:27.201Z,21.54
2019-05-07T07:20:57.820Z,23.87
2019-05-07T07:23:28.545Z,24.75
2019-05-07T07:25:59.261Z,22.87
2019-05-07T07:28:29.840Z,23.91
2019-05-07T07:31:19.388Z,24.41
2019-05-07T07:33:52.608Z,25.82
2019-05-07T07:36:25.019Z,25.43
2019-05-07T07:38:55.716Z,24.09
2019-05-07T07:41:33.176Z,23.05
2019-05-07T07:44:03.972Z,24.58
2019-05-07T07:46:34.520Z,24.09
2019-05-07T07:49:10.996Z,25.17
2019-05-07T07:51:42.185Z,24.65
2019-05-07T07:54:10.252Z,25.26
2019-05-07T07:56:52.286Z,24.46
2019-05-07T07:59:39.068Z,24.35
2019-05-07T08:02:22.968Z,23.82
2019-05-07T08:04:54.087Z,23.32
2019-05-07T08:07:24.854Z,24.60
2019-05-07T08:09:55.379Z,23.12
2019-05-07T08:12:25.915Z,24.02
2019-05-07T08:15:13.406Z,22.37
2019-05-07T08:17:29.917Z,22.59
2019-05-07T08:20:02.529Z,21.36
2019-05-07T08:22:33.118Z,20.66
2019-05-07T08:25:05.386Z,23.19
2019-05-07T08:27:36.290Z,20.42
2019-05-07T08:30:09.325Z,19.26
2019-05-07T08:32:50.318Z,18.83
2019-05-07T08:35:28.430Z,18.78
2019-05-07T08:37:59.094Z,18.14
2019-05-07T08:40:29.849Z,19.69
2019-05-07T08:43:00.599Z,18.74
2019-05-07T08:45:52.440Z,20.16
2019-05-07T08:48:28.094Z,20.81
2019-05-07T08:50:58.729Z,21.92
2019-05-07T08:53:29.333Z,23.43
2019-05-07T08:56:00.267Z,24.29
2019-05-07T08:58:31.760Z,22.20
2019-05-07T09:01:03.080Z,21.28
2019-05-07T09:03:43.375Z,22.82
2019-05-07T09:06:17.291Z,25.88
2019-05-07T09:08:48.029Z,26.07
2019-05-07T09:11:18.829Z,25.34
2019-05-07T09:13:49.433Z,20.60
2019-05-07T09:16:20.118Z,18.89
2019-05-07T09:18:52.510Z,17.13
2019-05-07T09:21:23.652Z,17.41
2019-05-07T09:23:54.539Z,17.34
2019-05-07T09:26:32.442Z,16.64
2019-05-07T09:29:11.817Z,16.68
2019-05-07T09:32:03.048Z,16.11
2019-05-07T09:34:38.082Z,15.06
2019-05-07T09:37:12.444Z,14.78
2019-05-07T09:39:43.447Z,14.50
2019-05-07T09:42:14.436Z,14.95
2019-05-07T09:44:45.380Z,14.76
2019-05-07T09:47:16.265Z,15.44
2019-05-07T09:50:00.420Z,15.72
2019-05-07T09:52:22.666Z,15.53
2019-05-07T09:54:52.825Z,14.85
2019-05-07T09:57:30.986Z,14.63
2019-05-07T09:59:56.508Z,14.69
2019-05-07T10:02:27.589Z,14.53
2019-05-07T10:04:58.644Z,14.23
2019-05-07T10:07:29.569Z,13.84
2019-05-07T10:10:02.937Z,13.87
2019-05-07T10:12:44.320Z,13.45
2019-05-07T10:15:17.426Z,13.36
2019-05-07T10:17:56.469Z,13.22
2019-05-07T10:20:27.631Z,13.09
2019-05-07T10:22:58.380Z,13.63
2019-05-07T10:25:38.745Z,13.33
2019-05-07T10:28:09.950Z,13.56
2019-05-07T10:30:42.670Z,13.65
2019-05-07T10:33:13.048Z,14.25
2019-05-07T10:35:43.871Z,14.36
2019-05-07T10:38:15.100Z,13.59
2019-05-07T10:40:46.415Z,13.84
2019-05-07T10:43:17.156Z,13.51
2019-05-07T10:46:06.498Z,13.12
2019-05-07T10:48:43.852Z,12.66
2019-05-07T10:51:14.519Z,13.05
2019-05-07T10:53:45.404Z,13.20
2019-05-07T10:56:17.093Z,12.94
2019-05-07T10:58:48.894Z,13.65
2019-05-07T11:01:25.334Z,14.80
2019-05-07T11:03:56.881Z,15.57
2019-05-07T11:06:28.094Z,14.90
2019-05-07T11:08:59.700Z,15.24
2019-05-07T11:11:31.888Z,15.01
2019-05-07T11:14:02.757Z,14.70
2019-05-07T11:16:38.693Z,14.53
2019-05-07T11:19:12.741Z,14.91
2019-05-07T11:21:43.303Z,15.17
2019-05-07T11:24:13.966Z,14.64
2019-05-07T11:26:44.604Z,14.58
2019-05-07T11:29:15.099Z,14.61
2019-05-07T11:31:45.713Z,14.42
2019-05-07T11:34:16.212Z,13.88
2019-05-07T11:36:46.908Z,13.35
2019-05-07T11:39:17.646Z,12.91
2019-05-07T11:42:07.083Z,12.90
2019-05-07T11:44:37.928Z,12.84
2019-05-07T11:47:22.521Z,13.19
2019-05-07T11:50:14.814Z,13.68
2019-05-07T11:52:51.770Z,13.99
2019-05-07T11:55:22.511Z,14.65
2019-05-07T11:57:54.258Z,14.93
2019-05-07T12:00:33.908Z,15.55
2019-05-07T12:03:04.587Z,14.31
2019-05-07T12:05:36.086Z,13.97
2019-05-07T12:08:07.447Z,13.20
2019-05-07T12:10:38.564Z,13.18
2019-05-07T12:13:09.821Z,12.57
2019-05-07T12:15:42.714Z,12.61
2019-05-07T12:18:13.428Z,12.22
2019-05-07T12:20:44.967Z,12.33
2019-05-07T12:23:15.923Z,12.76
2019-05-07T12:25:47.009Z,13.34
2019-05-07T12:28:18.110Z,14.04
2019-05-07T12:31:03.753Z,14.41
2019-05-07T12:33:53.393Z,14.87
2019-05-07T12:36:24.226Z,14.96
2019-05-07T12:38:54.960Z,13.93
2019-05-07T12:41:34.286Z,13.54
2019-05-07T12:44:08.795Z,13.39
2019-05-07T12:46:42.318Z,13.68
2019-05-07T12:49:12.936Z,13.06
2019-05-07T12:52:02.522Z,12.83
2019-05-07T12:54:52.447Z,12.67
2019-05-07T12:57:24.268Z,12.32
2019-05-07T12:59:55.193Z,12.48
2019-05-07T13:02:45.063Z,13.23
2019-05-07T13:05:16.256Z,13.84
2019-05-07T13:07:53.204Z,13.80
2019-05-07T13:10:24.245Z,14.07
2019-05-07T13:12:55.296Z,14.27
2019-05-07T13:15:28.018Z,14.80
2019-05-07T13:17:59.259Z,14.75
2019-05-07T13:20:32.045Z,14.63
2019-05-07T13:23:02.707Z,14.56
2019-05-07T13:25:34.108Z,14.51
2019-05-07T13:28:05.163Z,14.53
2019-05-07T13:30:36.261Z,14.29
2019-05-07T13:33:07.299Z,14.07
2019-05-07T13:35:38.997Z,14.21
2019-05-07T13:38:28.977Z,14.19
2019-05-07T13:41:19.273Z,13.92
2019-05-07T13:44:06.251Z,13.31
2019-05-07T13:46:38.478Z,13.04
2019-05-07T13:49:09.787Z,13.45
2019-05-07T13:51:41.832Z,13.94
2019-05-07T13:54:12.944Z,13.97
2019-05-07T13:56:44.180Z,14.18
2019-05-07T13:59:15.708Z,14.11
2019-05-07T14:01:56.453Z,13.91
2019-05-07T14:04:27.302Z,13.80
2019-05-07T14:07:01.944Z,13.81
2019-05-07T14:09:33.192Z,13.97
2019-05-07T14:12:04.152Z,13.94
2019-05-07T14:14:37.679Z,13.86
2019-05-07T14:17:08.553Z,13.91
2019-05-07T14:19:39.217Z,13.98
2019-05-07T14:22:18.002Z,13.31
2019-05-07T14:24:43.095Z,13.38
2019-05-07T14:27:13.885Z,13.29
2019-05-07T14:29:44.869Z,13.21
2019-05-07T14:32:28.815Z,13.13
2019-05-07T14:35:15.547Z,13.02
2019-05-07T14:37:52.249Z,13.01
2019-05-07T14:40:25.181Z,12.79
2019-05-07T14:43:03.526Z,12.54
2019-05-07T14:45:34.870Z,12.23
2019-05-07T14:48:05.670Z,12.06
2019-05-07T14:50:36.686Z,11.95
2019-05-07T14:53:08.800Z,11.84
2019-05-07T14:55:45.791Z,11.54
2019-05-07T14:58:20.013Z,11.33
2019-05-07T15:00:51.869Z,11.17
2019-05-07T15:03:22.978Z,10.80
2019-05-07T15:05:54.071Z,10.43
2019-05-07T15:08:25.056Z,10.26
2019-05-07T15:10:55.959Z,10.42
2019-05-07T15:13:28.731Z,10.43
2019-05-07T15:16:03.096Z,10.49
2019-05-07T15:18:53.044Z,10.39
2019-05-07T15:21:27.984Z,10.51
2019-05-07T15:23:58.986Z,10.77
2019-05-07T15:26:29.933Z,11.20
2019-05-07T15:29:12.122Z,11.55
2019-05-07T15:32:03.349Z,11.73
2019-05-07T15:34:34.868Z,11.99
2019-05-07T15:37:05.789Z,12.28
2019-05-07T15:39:36.747Z,12.35
2019-05-07T15:42:08.014Z,12.47
2019-05-07T15:44:38.798Z,12.38
2019-05-07T15:47:14.480Z,12.40
2019-05-07T15:49:45.107Z,12.30
2019-05-07T15:52:34.774Z,12.23
2019-05-07T15:55:09.212Z,12.36
2019-05-07T15:57:40.445Z,12.30
2019-05-07T16:00:14.271Z,12.51
2019-05-07T16:02:47.783Z,12.45
2019-05-07T16:05:19.944Z,12.28
2019-05-07T16:07:51.288Z,12.03
2019-05-07T16:10:23.433Z,12.00
2019-05-07T16:12:54.675Z,12.08
2019-05-07T16:15:25.745Z,12.02
2019-05-07T16:18:02.917Z,11.82
2019-05-07T16:20:35.339Z,11.82
2019-05-07T16:23:14.802Z,11.81
2019-05-07T16:25:39.458Z,11.91
2019-05-07T16:28:15.217Z,11.94
2019-05-07T16:30:44.382Z,11.75
2019-05-07T16:33:15.754Z,11.73
2019-05-07T16:35:47.579Z,11.69
2019-05-07T16:38:18.270Z,11.53
2019-05-07T16:40:49.671Z,11.55
2019-05-07T16:43:21.986Z,11.70
2019-05-07T16:45:52.764Z,11.75
2019-05-07T16:48:23.474Z,11.91
2019-05-07T16:50:55.609Z,11.87
2019-05-07T16:53:30.203Z,11.66
2019-05-07T16:56:02.897Z,11.48
2019-05-07T16:58:42.788Z,11.34
2019-05-07T17:01:14.077Z,11.19
2019-05-07T17:03:56.214Z,11.08
2019-05-07T17:06:26.908Z,10.87
2019-05-07T17:09:13.208Z,10.81
2019-05-07T17:11:46.552Z,10.72
2019-05-07T17:14:18.346Z,10.35
2019-05-07T17:16:51.585Z,10.52
2019-05-07T17:19:22.519Z,10.57
2019-05-07T17:21:53.871Z,10.47
2019-05-07T17:24:29.281Z,10.41
2019-05-07T17:27:02.371Z,10.19
2019-05-07T17:29:37.141Z,10.01
2019-05-07T17:32:08.828Z,10.04
2019-05-07T17:34:43.257Z,9.99
2019-05-07T17:37:17.969Z,9.94
2019-05-07T17:39:52.251Z,9.93
2019-05-07T17:42:22.867Z,9.79
2019-05-07T17:44:58.083Z,9.83
2019-05-07T17:47:29.360Z,9.98
2019-05-07T17:50:06.331Z,9.95
2019-05-07T17:52:41.823Z,9.91
2019-05-07T17:55:13.591Z,9.82
2019-05-07T17:57:47.363Z,9.84
2019-05-07T18:00:22.062Z,9.85
2019-05-07T18:03:15.401Z,9.59
2019-05-07T18:05:46.254Z,9.56
2019-05-07T18:08:17.556Z,9.54
2019-05-07T18:10:52.029Z,9.57
2019-05-07T18:13:23.061Z,9.60
2019-05-07T18:15:59.622Z,9.47
2019-05-07T18:18:33.748Z,9.25
2019-05-07T18:21:07.806Z,9.05
2019-05-07T18:23:42.625Z,8.80
2019-05-07T18:26:29.784Z,8.63
2019-05-07T18:28:49.077Z,8.64
2019-05-07T18:31:27.669Z,8.36
2019-05-07T18:34:00.083Z,7.98
2019-05-07T18:36:37.799Z,7.75
2019-05-07T18:39:10.122Z,7.62
2019-05-07T18:41:41.788Z,7.50
2019-05-07T18:44:15.983Z,7.44
2019-05-07T18:46:48.090Z,7.30
2019-05-07T18:49:22.703Z,7.23
2019-05-07T18:52:03.026Z,7.19
2019-05-07T18:54:34.376Z,7.12
2019-05-07T18:57:10.197Z,7.09
2019-05-07T18:59:44.356Z,7.00
2019-05-07T19:02:15.944Z,6.89
2019-05-07T19:04:47.929Z,6.83
2019-05-07T19:07:22.811Z,6.84
2019-05-07T19:09:56.993Z,6.80
2019-05-07T19:12:32.743Z,6.85
2019-05-07T19:15:08.761Z,6.87
2019-05-07T19:17:50.830Z,6.79
2019-05-07T19:20:27.069Z,6.70
2019-05-07T19:23:02.691Z,6.58
2019-05-07T19:25:36.299Z,6.44
2019-05-07T19:28:14.372Z,6.36
2019-05-07T19:30:46.191Z,6.28
2019-05-07T19:33:26.736Z,6.20
2019-05-07T19:35:58.803Z,6.12
2019-05-07T19:38:32.366Z,6.02
2019-05-07T19:41:08.618Z,5.90
2019-05-07T19:43:46.687Z,5.92
2019-05-07T19:46:22.851Z,5.97
2019-05-07T19:49:02.750Z,5.96
2019-05-07T19:54:28.613Z,5.84
2019-05-07T19:57:03.980Z,5.58
2019-05-07T19:59:42.885Z,5.46
2019-05-07T20:02:17.611Z,5.37
2019-05-07T20:04:55.863Z,5.26
2019-05-07T20:07:28.308Z,5.23
2019-05-07T20:10:02.728Z,5.24
2019-05-07T20:12:38.162Z,5.30
2019-05-07T20:15:22.383Z,5.31
2019-05-07T20:17:57.998Z,5.38
2019-05-07T20:20:35.435Z,5.42
2019-05-07T20:23:09.425Z,5.48
2019-05-07T20:25:52.763Z,5.50
2019-05-07T20:28:24.186Z,5.29
2019-05-07T20:30:56.388Z,5.04
2019-05-07T20:33:33.333Z,4.93
2019-05-07T20:36:09.895Z,4.83
2019-05-07T20:38:47.809Z,4.62
2019-05-07T20:41:24.251Z,4.51
2019-05-07T20:44:00.074Z,4.39
2019-05-07T20:46:31.965Z,4.27
2019-05-07T20:49:03.182Z,4.25
2019-05-07T20:51:35.268Z,4.32
2019-05-07T20:54:22.703Z,4.29
2019-05-07T20:56:58.905Z,4.40
2019-05-07T20:59:32.752Z,4.41
2019-05-07T21:02:05.543Z,4.42
2019-05-07T21:04:36.543Z,4.43
2019-05-07T21:07:11.576Z,4.32
2019-05-07T21:09:42.298Z,4.18
2019-05-07T21:12:13.245Z,4.12
2019-05-07T21:14:45.260Z,4.09
2019-05-07T21:17:16.621Z,3.99
2019-05-07T21:20:07.863Z,4.02
2019-05-07T21:22:42.442Z,4.00
2019-05-07T21:25:14.516Z,4.13
2019-05-07T21:27:45.432Z,4.08
2019-05-07T21:30:17.628Z,4.00
2019-05-07T21:32:48.521Z,3.91
2019-05-07T21:35:19.394Z,3.77
2019-05-07T21:37:52.402Z,3.75
2019-05-07T21:40:23.193Z,3.71
2019-05-07T21:42:53.976Z,3.73
2019-05-07T21:45:43.868Z,3.80
2019-05-07T21:48:15.273Z,3.90
2019-05-07T21:50:46.760Z,3.93
2019-05-07T21:53:23.399Z,3.88
2019-05-07T21:56:05.136Z,3.84
2019-05-07T21:58:48.119Z,3.81
2019-05-07T22:01:23.344Z,3.73
2019-05-07T22:03:55.133Z,3.72
2019-05-07T22:06:26.010Z,3.74
2019-05-07T22:08:56.871Z,3.73
2019-05-07T22:11:27.863Z,3.76
2019-05-07T22:13:58.623Z,3.79
2019-05-07T22:16:29.348Z,3.79
2019-05-07T22:19:02.523Z,3.77
2019-05-07T22:21:34.237Z,3.78
2019-05-07T22:24:05.359Z,3.67
2019-05-07T22:26:36.213Z,3.50
2019-05-07T22:29:07.076Z,3.26
2019-05-07T22:31:56.789Z,3.25
2019-05-07T22:35:05.787Z,3.42
2019-05-07T22:37:36.696Z,3.60
2019-05-07T22:40:08.353Z,3.67
2019-05-07T22:42:39.186Z,3.70
2019-05-07T22:45:12.137Z,3.73
2019-05-07T22:47:43.173Z,3.75
2019-05-07T22:50:15.844Z,3.86
2019-05-07T22:52:46.743Z,4.06
2019-05-07T22:55:17.639Z,3.94
2019-05-07T22:57:56.317Z,3.91
2019-05-07T23:00:35.378Z,3.87
2019-05-07T23:03:06.293Z,3.78
2019-05-07T23:05:37.077Z,3.76
2019-05-07T23:08:07.872Z,3.86
2019-05-07T23:10:38.886Z,3.88
2019-05-07T23:13:09.633Z,3.83
2019-05-07T23:15:40.264Z,3.94
2019-05-07T23:18:13.044Z,3.80
2019-05-07T23:20:43.850Z,3.64
2019-05-07T23:23:14.463Z,3.48
2019-05-07T23:25:45.293Z,3.54
2019-05-07T23:28:16.139Z,3.40
2019-05-07T23:30:46.928Z,3.28
2019-05-07T23:33:17.950Z,3.35
2019-05-07T23:35:48.789Z,3.31
2019-05-07T23:38:19.608Z,3.22
2019-05-07T23:41:09.219Z,3.17
2019-05-07T23:43:42.355Z,3.16
2019-05-07T23:46:12.922Z,3.13
2019-05-07T23:48:43.761Z,3.10
2019-05-07T23:51:14.562Z,3.11
2019-05-07T23:53:45.363Z,3.21
2019-05-07T23:56:16.328Z,3.22
2019-05-07T23:58:47.058Z,3.24
